createdAt,value
2023-05-05T00:00:28.562Z,62.04
2023-05-05T00:01:28.552Z,62.04
2023-05-05T00:02:28.614Z,62.24
2023-05-05T00:03:28.583Z,62.55
2023-05-05T00:04:29.001Z,62.85
2023-05-05T00:05:28.503Z,62.85
2023-05-05T00:06:28.482Z,63.47
2023-05-05T00:07:28.469Z,63.57
2023-05-05T00:08:28.586Z,63.57
2023-05-05T00:09:28.479Z,63.81
2023-05-05T00:10:28.492Z,63.90
2023-05-05T00:11:28.469Z,63.81
2023-05-05T00:12:28.452Z,64.22
2023-05-05T00:13:28.441Z,64.31
2023-05-05T00:14:28.454Z,64.31
2023-05-05T00:15:28.414Z,64.62
2023-05-05T00:16:28.404Z,64.75
2023-05-05T00:17:28.407Z,64.86
2023-05-05T00:18:28.375Z,64.86
2023-05-05T00:19:28.355Z,64.75
2023-05-05T00:20:28.369Z,64.86
2023-05-05T00:21:28.359Z,65.37
2023-05-05T00:22:28.340Z,65.37
2023-05-05T00:23:28.311Z,65.57
2023-05-05T00:24:28.335Z,65.57
2023-05-05T00:25:28.352Z,65.67
2023-05-05T00:26:28.304Z,65.70
2023-05-05T00:27:28.288Z,65.80
2023-05-05T00:28:28.275Z,65.91
2023-05-05T00:29:28.249Z,65.91
2023-05-05T00:30:28.238Z,65.80
2023-05-05T00:31:28.301Z,65.80
2023-05-05T00:32:28.263Z,65.80
2023-05-05T00:33:28.233Z,65.91
2023-05-05T00:34:28.235Z,65.91
2023-05-05T00:35:28.202Z,65.94
2023-05-05T00:36:28.201Z,65.94
2023-05-05T00:37:28.213Z,66.14
2023-05-05T00:38:28.187Z,66.25
2023-05-05T00:39:28.182Z,66.25
2023-05-05T00:40:28.163Z,66.58
2023-05-05T00:41:28.163Z,66.89
2023-05-05T00:42:28.537Z,67.40
2023-05-05T00:43:28.118Z,67.50
2023-05-05T00:44:28.117Z,67.60
2023-05-05T00:45:28.104Z,67.71
2023-05-05T00:46:28.134Z,67.50
2023-05-05T00:47:28.114Z,67.50
2023-05-05T00:48:28.114Z,67.40
2023-05-05T00:49:28.090Z,67.19
2023-05-05T00:50:28.072Z,67.19
2023-05-05T00:51:28.059Z,67.30
2023-05-05T00:52:28.053Z,67.40
2023-05-05T00:53:28.057Z,67.40
2023-05-05T00:54:28.063Z,67.50
2023-05-05T00:55:28.013Z,67.60
2023-05-05T00:56:27.988Z,67.71
2023-05-05T00:57:27.978Z,67.71
2023-05-05T00:58:27.973Z,67.81
2023-05-05T00:59:28.013Z,67.91
2023-05-05T01:00:27.968Z,67.91
2023-05-05T01:01:27.993Z,68.01
2023-05-05T01:02:28.048Z,68.12
2023-05-05T01:03:28.009Z,68.12
2023-05-05T01:04:27.981Z,68.32
2023-05-05T01:05:27.999Z,68.01
2023-05-05T01:06:27.887Z,68.42
2023-05-05T01:07:27.883Z,68.42
2023-05-05T01:08:27.877Z,68.22
2023-05-05T01:09:27.858Z,68.25
2023-05-05T01:10:27.897Z,68.25
2023-05-05T01:11:28.146Z,68.35
2023-05-05T01:12:27.861Z,68.46
2023-05-05T01:13:27.809Z,68.55
2023-05-05T01:14:27.807Z,68.87
2023-05-05T01:15:27.804Z,68.76
2023-05-05T01:16:27.827Z,68.76
2023-05-05T01:17:27.834Z,68.66
2023-05-05T01:18:27.790Z,68.87
2023-05-05T01:19:27.767Z,68.97
2023-05-05T01:20:27.743Z,69.07
2023-05-05T01:21:27.726Z,69.17
2023-05-05T01:22:27.721Z,69.07
2023-05-05T01:23:27.757Z,69.17
2023-05-05T01:24:27.697Z,69.17
2023-05-05T01:25:27.682Z,69.38
2023-05-05T01:26:27.688Z,69.27
2023-05-05T01:27:27.666Z,69.27
2023-05-05T01:28:27.678Z,69.38
2023-05-05T01:29:27.697Z,69.38
2023-05-05T01:30:27.682Z,69.38
2023-05-05T01:31:27.660Z,69.31
2023-05-05T01:32:27.632Z,69.48
2023-05-05T01:33:27.605Z,69.38
2023-05-05T01:34:27.616Z,69.51
2023-05-05T01:35:27.614Z,69.68
2023-05-05T01:36:27.615Z,69.58
2023-05-05T01:37:27.571Z,69.38
2023-05-05T01:38:27.597Z,69.58
2023-05-05T01:39:27.561Z,69.58
2023-05-05T01:40:27.552Z,69.79
2023-05-05T01:41:27.564Z,69.58
2023-05-05T01:42:27.545Z,69.71
2023-05-05T01:43:27.510Z,69.61
2023-05-05T01:44:27.496Z,69.71
2023-05-05T01:45:27.513Z,69.71
2023-05-05T01:46:27.485Z,69.71
2023-05-05T01:47:27.556Z,69.61
2023-05-05T01:48:27.458Z,69.82
2023-05-05T01:49:27.472Z,69.92
2023-05-05T01:50:27.437Z,70.12
2023-05-05T01:51:27.475Z,70.23
2023-05-05T01:52:27.448Z,70.43
2023-05-05T01:53:27.450Z,70.43
2023-05-05T01:54:27.390Z,70.33
2023-05-05T01:55:27.379Z,70.33
2023-05-05T01:56:27.364Z,70.23
2023-05-05T01:57:27.361Z,70.12
2023-05-05T01:58:27.355Z,70.12
2023-05-05T01:59:27.389Z,70.12
2023-05-05T02:00:27.367Z,70.23
2023-05-05T02:01:27.379Z,70.57
2023-05-05T02:02:27.413Z,70.67
2023-05-05T02:03:27.378Z,70.77
2023-05-05T02:04:27.304Z,70.84
2023-05-05T02:05:27.403Z,70.64
2023-05-05T02:06:27.288Z,70.43
2023-05-05T02:07:27.292Z,70.23
2023-05-05T02:08:27.261Z,70.23
2023-05-05T02:09:27.261Z,70.33
2023-05-05T02:10:27.237Z,70.43
2023-05-05T02:11:27.256Z,70.53
2023-05-05T02:12:27.207Z,70.47
2023-05-05T02:13:27.203Z,70.74
2023-05-05T02:14:27.190Z,70.74
2023-05-05T02:15:27.197Z,70.74
2023-05-05T02:16:27.209Z,70.53
2023-05-05T02:17:27.437Z,70.53
2023-05-05T02:18:27.189Z,70.53
2023-05-05T02:19:27.161Z,70.74
2023-05-05T02:20:27.157Z,70.74
2023-05-05T02:21:27.140Z,70.74
2023-05-05T02:22:27.119Z,70.74
2023-05-05T02:23:27.157Z,70.74
2023-05-05T02:24:27.097Z,70.84
2023-05-05T02:25:27.087Z,70.84
2023-05-05T02:26:27.065Z,70.84
2023-05-05T02:27:27.072Z,70.84
2023-05-05T02:28:27.047Z,70.84
2023-05-05T02:29:27.089Z,70.74
2023-05-05T02:30:27.049Z,70.84
2023-05-05T02:31:27.061Z,70.94
2023-05-05T02:32:27.022Z,70.94
2023-05-05T02:33:27.022Z,71.04
2023-05-05T02:34:27.019Z,71.08
2023-05-05T02:35:27.023Z,71.08
2023-05-05T02:36:26.989Z,71.18
2023-05-05T02:37:26.965Z,71.08
2023-05-05T02:38:26.961Z,71.08
2023-05-05T02:39:26.957Z,71.18
2023-05-05T02:40:26.956Z,71.28
2023-05-05T02:41:26.962Z,71.39
2023-05-05T02:42:26.929Z,71.49
2023-05-05T02:43:26.943Z,71.69
2023-05-05T02:44:26.902Z,71.90
2023-05-05T02:45:26.906Z,72.03
2023-05-05T02:46:26.887Z,72.24
2023-05-05T02:47:26.902Z,72.24
2023-05-05T02:48:26.857Z,72.24
2023-05-05T02:49:26.839Z,72.14
2023-05-05T02:50:26.847Z,72.24
2023-05-05T02:51:26.836Z,72.24
2023-05-05T02:52:26.829Z,72.34
2023-05-05T02:53:26.862Z,72.34
2023-05-05T02:54:26.815Z,72.44
2023-05-05T02:55:26.792Z,72.55
2023-05-05T02:56:26.780Z,72.44
2023-05-05T02:57:26.777Z,72.44
2023-05-05T02:58:26.766Z,72.44
2023-05-05T02:59:26.780Z,72.34
2023-05-05T03:00:26.751Z,72.24
2023-05-05T03:01:26.762Z,72.03
2023-05-05T03:02:26.770Z,72.07
2023-05-05T03:03:26.784Z,72.27
2023-05-05T03:04:26.704Z,72.58
2023-05-05T03:05:26.722Z,72.89
2023-05-05T03:06:26.690Z,72.99
2023-05-05T03:07:26.667Z,73.10
2023-05-05T03:08:26.695Z,73.10
2023-05-05T03:09:26.640Z,72.89
2023-05-05T03:10:26.637Z,72.89
2023-05-05T03:11:26.647Z,72.89
2023-05-05T03:12:26.611Z,73.10
2023-05-05T03:13:26.604Z,73.40
2023-05-05T03:14:26.594Z,73.50
2023-05-05T03:15:26.585Z,73.61
2023-05-05T03:16:26.605Z,73.61
2023-05-05T03:17:26.617Z,73.50
2023-05-05T03:18:26.561Z,73.50
2023-05-05T03:19:26.552Z,73.61
2023-05-05T03:20:26.543Z,73.50
2023-05-05T03:21:26.530Z,73.30
2023-05-05T03:22:26.511Z,73.19
2023-05-05T03:23:26.551Z,73.19
2023-05-05T03:24:26.480Z,73.30
2023-05-05T03:25:26.469Z,73.40
2023-05-05T03:26:26.470Z,73.40
2023-05-05T03:27:26.456Z,73.40
2023-05-05T03:28:26.445Z,73.40
2023-05-05T03:29:26.475Z,73.50
2023-05-05T03:30:26.421Z,73.40
2023-05-05T03:31:26.450Z,73.30
2023-05-05T03:32:26.435Z,73.10
2023-05-05T03:33:26.409Z,73.10
2023-05-05T03:34:26.410Z,72.99
2023-05-05T03:35:26.432Z,73.10
2023-05-05T03:36:27.877Z,72.89
2023-05-05T03:37:26.388Z,72.89
2023-05-05T03:38:26.352Z,72.89
2023-05-05T03:39:26.331Z,72.89
2023-05-05T03:40:36.302Z,72.86
2023-05-05T03:41:26.371Z,72.86
2023-05-05T03:42:26.315Z,72.86
2023-05-05T03:43:26.307Z,72.55
2023-05-05T03:44:26.292Z,72.44
2023-05-05T03:45:26.290Z,72.24
2023-05-05T03:46:26.288Z,72.24
2023-05-05T03:47:26.313Z,72.24
2023-05-05T03:48:26.236Z,72.03
2023-05-05T03:49:26.222Z,72.14
2023-05-05T03:50:26.229Z,72.14
2023-05-05T03:51:26.197Z,72.14
2023-05-05T03:52:26.203Z,72.14
2023-05-05T03:53:26.686Z,71.73
2023-05-05T03:54:26.184Z,71.83
2023-05-05T03:55:26.182Z,71.93
2023-05-05T03:56:26.181Z,71.93
2023-05-05T03:57:26.156Z,71.93
2023-05-05T03:58:26.167Z,71.93
2023-05-05T03:59:26.185Z,71.83
2023-05-05T04:00:26.148Z,72.03
2023-05-05T04:01:26.141Z,72.14
2023-05-05T04:02:26.181Z,72.14
2023-05-05T04:03:26.321Z,72.24
2023-05-05T04:04:26.124Z,72.24
2023-05-05T04:05:26.106Z,71.93
2023-05-05T04:06:26.120Z,72.03
2023-05-05T04:07:26.083Z,72.03
2023-05-05T04:08:26.055Z,72.38
2023-05-05T04:09:26.055Z,72.78
2023-05-05T04:10:26.049Z,72.78
2023-05-05T04:11:26.050Z,72.58
2023-05-05T04:12:25.997Z,72.58
2023-05-05T04:13:25.993Z,72.58
2023-05-05T04:14:25.988Z,72.58
2023-05-05T04:15:25.983Z,72.68
2023-05-05T04:16:26.223Z,72.78
2023-05-05T04:17:26.036Z,72.78
2023-05-05T04:18:25.927Z,73.10
2023-05-05T04:19:25.953Z,72.89
2023-05-05T04:20:25.934Z,72.78
2023-05-05T04:21:25.932Z,72.68
2023-05-05T04:22:25.949Z,72.78
2023-05-05T04:23:25.912Z,72.99
2023-05-05T04:24:25.900Z,73.10
2023-05-05T04:25:25.885Z,73.30
2023-05-05T04:26:25.887Z,73.40
2023-05-05T04:27:25.863Z,73.40
2023-05-05T04:28:25.884Z,73.61
2023-05-05T04:29:25.832Z,73.61
2023-05-05T04:30:25.828Z,73.61
2023-05-05T04:31:25.859Z,73.61
2023-05-05T04:32:25.830Z,73.40
2023-05-05T04:33:25.783Z,73.40
2023-05-05T04:34:25.849Z,73.40
2023-05-05T04:35:25.792Z,73.61
2023-05-05T04:36:25.764Z,73.71
2023-05-05T04:37:25.758Z,73.91
2023-05-05T04:38:25.771Z,74.05
2023-05-05T04:39:25.746Z,74.15
2023-05-05T04:40:25.759Z,74.26
2023-05-05T04:41:26.473Z,74.46
2023-05-05T04:42:25.705Z,74.57
2023-05-05T04:43:25.712Z,74.57
2023-05-05T04:44:25.680Z,74.77
2023-05-05T04:45:25.690Z,74.87
2023-05-05T04:46:25.743Z,75.08
2023-05-05T04:47:25.715Z,75.08
2023-05-05T04:48:25.652Z,75.08
2023-05-05T04:49:25.648Z,75.08
2023-05-05T04:50:25.664Z,74.87
2023-05-05T04:51:25.612Z,74.77
2023-05-05T04:52:25.635Z,74.84
2023-05-05T04:53:25.601Z,74.94
2023-05-05T04:54:25.591Z,74.84
2023-05-05T04:55:25.569Z,74.84
2023-05-05T04:56:25.553Z,74.53
2023-05-05T04:57:25.554Z,74.43
2023-05-05T04:58:25.577Z,74.32
2023-05-05T04:59:25.543Z,74.12
2023-05-05T05:00:25.526Z,73.78
2023-05-05T05:01:25.541Z,73.68
2023-05-05T05:02:25.527Z,73.78
2023-05-05T05:03:25.602Z,74.02
2023-05-05T05:04:25.501Z,74.32
2023-05-05T05:05:25.477Z,74.43
2023-05-05T05:06:25.465Z,74.43
2023-05-05T05:07:25.444Z,74.19
2023-05-05T05:08:25.474Z,74.60
2023-05-05T05:09:25.426Z,74.70
2023-05-05T05:10:25.448Z,74.39
2023-05-05T05:11:25.410Z,74.19
2023-05-05T05:12:25.411Z,74.29
2023-05-05T05:13:25.528Z,74.49
2023-05-05T05:14:25.381Z,74.19
2023-05-05T05:15:25.367Z,74.19
2023-05-05T05:16:25.433Z,74.08
2023-05-05T05:17:25.354Z,73.98
2023-05-05T05:18:25.330Z,73.68
2023-05-05T05:19:25.322Z,73.36
2023-05-05T05:20:25.311Z,73.16
2023-05-05T05:21:25.318Z,73.36
2023-05-05T05:22:25.364Z,73.03
2023-05-05T05:23:25.293Z,72.41
2023-05-05T05:24:25.308Z,72.31
2023-05-05T05:25:25.276Z,72.41
2023-05-05T05:26:25.258Z,72.31
2023-05-05T05:27:25.262Z,72.61
2023-05-05T05:28:25.267Z,72.72
2023-05-05T05:29:25.228Z,72.20
2023-05-05T05:30:25.219Z,72.00
2023-05-05T05:31:25.246Z,71.56
2023-05-05T05:32:25.177Z,71.56
2023-05-05T05:33:25.225Z,71.66
2023-05-05T05:34:25.587Z,72.24
2023-05-05T05:35:25.166Z,72.55
2023-05-05T05:36:25.173Z,72.96
2023-05-05T05:37:25.134Z,72.75
2023-05-05T05:38:25.118Z,72.52
2023-05-05T05:39:25.137Z,72.31
2023-05-05T05:40:25.157Z,71.90
2023-05-05T05:41:25.119Z,72.00
2023-05-05T05:42:25.092Z,71.19
2023-05-05T05:43:25.081Z,71.19
2023-05-05T05:44:25.109Z,71.19
2023-05-05T05:45:25.062Z,70.88
2023-05-05T05:46:25.112Z,70.88
2023-05-05T05:47:25.088Z,70.98
2023-05-05T05:48:25.040Z,71.08
2023-05-05T05:49:25.062Z,71.39
2023-05-05T05:50:25.022Z,71.90
2023-05-05T05:51:25.021Z,72.00
2023-05-05T05:52:25.031Z,71.25
2023-05-05T05:53:24.993Z,71.19
2023-05-05T05:54:24.973Z,70.95
2023-05-05T05:55:24.966Z,70.95
2023-05-05T05:56:24.943Z,70.54
2023-05-05T05:57:24.941Z,70.34
2023-05-05T05:58:24.955Z,69.62
2023-05-05T05:59:24.937Z,70.00
2023-05-05T06:00:24.932Z,71.42
2023-05-05T06:01:24.925Z,71.22
2023-05-05T06:02:24.972Z,71.63
2023-05-05T06:03:25.388Z,71.42
2023-05-05T06:04:24.902Z,71.42
2023-05-05T06:05:24.872Z,70.98
2023-05-05T06:06:24.844Z,70.68
2023-05-05T06:07:24.841Z,70.68
2023-05-05T06:08:25.222Z,70.37
2023-05-05T06:09:24.831Z,70.17
2023-05-05T06:10:27.241Z,69.76
2023-05-05T06:11:24.799Z,67.82
2023-05-05T06:12:24.795Z,66.66
2023-05-05T06:13:24.793Z,66.56
2023-05-05T06:14:24.770Z,66.36
2023-05-05T06:15:24.770Z,66.05
2023-05-05T06:16:24.866Z,66.36
2023-05-05T06:17:24.731Z,66.94
2023-05-05T06:18:24.741Z,67.04
2023-05-05T06:19:24.733Z,66.83
2023-05-05T06:20:24.754Z,66.53
2023-05-05T06:21:24.712Z,66.53
2023-05-05T06:22:24.694Z,66.70
2023-05-05T06:23:24.714Z,67.01
2023-05-05T06:24:24.713Z,67.21
2023-05-05T06:25:24.695Z,67.32
2023-05-05T06:26:24.667Z,67.21
2023-05-05T06:27:24.622Z,67.29
2023-05-05T06:28:24.627Z,67.18
2023-05-05T06:29:24.621Z,67.18
2023-05-05T06:30:24.588Z,67.08
2023-05-05T06:31:24.665Z,67.38
2023-05-05T06:32:24.596Z,67.69
2023-05-05T06:33:24.574Z,67.66
2023-05-05T06:34:24.573Z,67.08
2023-05-05T06:35:24.578Z,67.15
2023-05-05T06:36:24.641Z,67.46
2023-05-05T06:37:24.589Z,67.35
2023-05-05T06:38:24.517Z,66.94
2023-05-05T06:39:24.519Z,66.74
2023-05-05T06:40:24.508Z,67.12
2023-05-05T06:41:24.512Z,66.91
2023-05-05T06:42:24.482Z,67.12
2023-05-05T06:43:24.517Z,66.30
2023-05-05T06:44:24.464Z,66.41
2023-05-05T06:45:24.451Z,66.27
2023-05-05T06:46:24.504Z,66.38
2023-05-05T06:47:24.478Z,65.56
2023-05-05T06:48:24.440Z,64.03
2023-05-05T06:49:24.521Z,63.53
2023-05-05T06:50:24.407Z,63.49
2023-05-05T06:51:24.384Z,63.09
2023-05-05T06:52:24.367Z,62.27
2023-05-05T06:53:24.376Z,62.07
2023-05-05T06:54:24.395Z,61.87
2023-05-05T06:55:24.359Z,61.33
2023-05-05T06:56:24.360Z,61.33
2023-05-05T06:57:24.320Z,60.41
2023-05-05T06:58:24.326Z,60.21
2023-05-05T06:59:24.310Z,60.21
2023-05-05T07:00:24.533Z,60.59
2023-05-05T07:01:24.369Z,60.28
2023-05-05T07:02:26.699Z,59.77
2023-05-05T07:03:24.325Z,59.88
2023-05-05T07:04:24.590Z,59.88
2023-05-05T07:05:24.250Z,59.88
2023-05-05T07:06:24.261Z,60.28
2023-05-05T07:07:24.228Z,60.28
2023-05-05T07:08:24.213Z,60.18
2023-05-05T07:09:24.200Z,59.95
2023-05-05T07:10:24.181Z,59.95
2023-05-05T07:11:24.181Z,59.64
2023-05-05T07:12:24.208Z,59.44
2023-05-05T07:13:24.162Z,59.34
2023-05-05T07:14:24.585Z,59.24
2023-05-05T07:15:29.378Z,59.41
2023-05-05T07:16:24.183Z,59.41
2023-05-05T07:17:24.172Z,58.80
2023-05-05T07:18:24.165Z,59.72
2023-05-05T07:19:24.121Z,60.33
2023-05-05T07:20:24.581Z,60.33
2023-05-05T07:21:24.089Z,59.79
2023-05-05T07:22:24.100Z,60.20
2023-05-05T07:23:24.079Z,60.50
2023-05-05T07:24:24.114Z,59.89
2023-05-05T07:25:24.066Z,58.88
2023-05-05T07:26:24.061Z,58.06
2023-05-05T07:27:24.064Z,57.97
2023-05-05T07:28:24.032Z,58.17
2023-05-05T07:29:24.011Z,58.17
2023-05-05T07:30:24.310Z,57.86
2023-05-05T07:31:24.002Z,58.45
2023-05-05T07:32:23.976Z,58.14
2023-05-05T07:33:23.968Z,58.54
2023-05-05T07:34:23.966Z,58.14
2023-05-05T07:35:23.942Z,57.33
2023-05-05T07:36:23.947Z,57.33
2023-05-05T07:37:23.921Z,57.33
2023-05-05T07:38:23.909Z,57.43
2023-05-05T07:39:23.915Z,57.20
2023-05-05T07:40:23.909Z,57.50
2023-05-05T07:41:23.908Z,58.01
2023-05-05T07:42:23.906Z,58.11
2023-05-05T07:43:23.875Z,57.60
2023-05-05T07:44:23.883Z,57.50
2023-05-05T07:45:23.860Z,57.91
2023-05-05T07:46:23.908Z,58.18
2023-05-05T07:47:23.845Z,59.50
2023-05-05T07:48:23.839Z,57.98
2023-05-05T07:49:23.800Z,57.58
2023-05-05T07:50:23.789Z,58.09
2023-05-05T07:51:23.798Z,58.16
2023-05-05T07:52:37.384Z,57.96
2023-05-05T07:53:23.781Z,57.45
2023-05-05T07:54:23.806Z,56.34
2023-05-05T07:55:23.754Z,55.12
2023-05-05T07:56:23.721Z,54.41
2023-05-05T07:57:23.708Z,54.82
2023-05-05T07:58:23.693Z,55.19
2023-05-05T07:59:23.701Z,55.10
2023-05-05T08:00:23.716Z,52.06
2023-05-05T08:01:23.671Z,51.55
2023-05-05T08:02:23.788Z,50.84
2023-05-05T08:03:23.815Z,50.94
2023-05-05T08:04:23.679Z,51.95
2023-05-05T08:05:23.650Z,51.14
2023-05-05T08:06:23.857Z,50.41
2023-05-05T08:07:23.618Z,50.82
2023-05-05T08:08:23.603Z,52.13
2023-05-05T08:09:23.599Z,52.23
2023-05-05T08:10:23.585Z,52.23
2023-05-05T08:11:23.565Z,51.93
2023-05-05T08:12:23.584Z,51.40
2023-05-05T08:13:23.546Z,50.29
2023-05-05T08:14:23.533Z,49.27
2023-05-05T08:15:23.535Z,48.67
2023-05-05T08:16:23.540Z,49.27
2023-05-05T08:17:23.531Z,48.67
2023-05-05T08:18:23.512Z,48.54
2023-05-05T08:19:28.906Z,49.35
2023-05-05T08:20:23.516Z,50.46
2023-05-05T08:21:23.487Z,51.17
2023-05-05T08:22:23.466Z,51.48
2023-05-05T08:23:23.463Z,51.07
2023-05-05T08:24:23.488Z,51.78
2023-05-05T08:25:23.445Z,50.97
2023-05-05T08:26:23.442Z,51.25
2023-05-05T08:27:23.402Z,51.65
2023-05-05T08:28:23.407Z,52.76
2023-05-05T08:29:23.386Z,52.36
2023-05-05T08:30:23.413Z,51.55
2023-05-05T08:31:23.377Z,49.93
2023-05-05T08:32:23.363Z,49.93
2023-05-05T08:33:23.348Z,51.15
2023-05-05T08:34:23.374Z,50.74
2023-05-05T08:35:23.330Z,50.44
2023-05-05T08:36:23.321Z,50.64
2023-05-05T08:37:23.342Z,51.25
2023-05-05T08:38:23.313Z,50.84
2023-05-05T08:39:23.291Z,51.05
2023-05-05T08:40:23.324Z,51.32
2023-05-05T08:41:23.274Z,51.63
2023-05-05T08:42:36.176Z,51.23
2023-05-05T08:43:23.248Z,50.82
2023-05-05T08:44:23.238Z,50.82
2023-05-05T08:45:23.311Z,51.32
2023-05-05T08:46:23.261Z,51.03
2023-05-05T08:47:23.252Z,50.52
2023-05-05T08:48:23.198Z,50.39
2023-05-05T08:49:23.174Z,49.79
2023-05-05T08:50:23.235Z,50.70
2023-05-05T08:51:23.207Z,50.80
2023-05-05T08:52:23.205Z,50.39
2023-05-05T08:53:23.149Z,50.29
2023-05-05T08:54:23.153Z,50.80
2023-05-05T08:55:23.124Z,50.57
2023-05-05T08:56:23.103Z,51.28
2023-05-05T08:57:23.132Z,50.16
2023-05-05T08:58:23.087Z,50.07
2023-05-05T08:59:23.099Z,50.87
2023-05-05T09:00:23.208Z,50.07
2023-05-05T09:01:23.155Z,50.67
2023-05-05T09:02:23.107Z,51.18
2023-05-05T09:03:23.113Z,51.28
2023-05-05T09:04:23.057Z,51.68
2023-05-05T09:05:23.016Z,51.78
2023-05-05T09:06:23.023Z,51.89
2023-05-05T09:07:22.994Z,51.38
2023-05-05T09:08:22.979Z,50.95
2023-05-05T09:09:23.204Z,51.45
2023-05-05T09:10:23.074Z,50.85
2023-05-05T09:11:22.941Z,50.95
2023-05-05T09:12:22.959Z,51.05
2023-05-05T09:13:22.928Z,50.52
2023-05-05T09:14:22.931Z,50.82
2023-05-05T09:15:22.953Z,52.04
2023-05-05T09:16:22.945Z,52.04
2023-05-05T09:17:22.923Z,51.61
2023-05-05T09:18:22.897Z,51.40
2023-05-05T09:19:22.875Z,50.60
2023-05-05T09:20:22.869Z,50.30
2023-05-05T09:21:22.893Z,50.50
2023-05-05T09:22:22.857Z,50.60
2023-05-05T09:23:22.870Z,50.40
2023-05-05T09:24:22.813Z,49.97
2023-05-05T09:25:22.811Z,49.57
2023-05-05T09:26:22.819Z,49.97
2023-05-05T09:27:22.810Z,49.67
2023-05-05T09:28:22.803Z,49.57
2023-05-05T09:29:22.787Z,50.27
2023-05-05T09:30:22.769Z,49.67
2023-05-05T09:31:22.860Z,50.27
2023-05-05T09:32:22.769Z,50.48
2023-05-05T09:33:22.736Z,50.07
2023-05-05T09:34:22.752Z,50.57
2023-05-05T09:35:22.737Z,49.55
2023-05-05T09:36:22.710Z,48.84
2023-05-05T09:37:22.678Z,50.05
2023-05-05T09:38:22.689Z,50.05
2023-05-05T09:39:22.674Z,49.95
2023-05-05T09:40:22.702Z,50.35
2023-05-05T09:41:22.655Z,50.25
2023-05-05T09:42:22.639Z,49.93
2023-05-05T09:43:22.635Z,49.62
2023-05-05T09:44:22.628Z,49.93
2023-05-05T09:45:22.635Z,49.93
2023-05-05T09:46:22.757Z,49.22
2023-05-05T09:47:29.634Z,49.52
2023-05-05T09:48:22.673Z,50.23
2023-05-05T09:49:22.561Z,49.90
2023-05-05T09:50:22.548Z,49.80
2023-05-05T09:51:22.565Z,49.60
2023-05-05T09:52:22.576Z,49.60
2023-05-05T09:53:22.512Z,49.70
2023-05-05T09:54:22.505Z,49.98
2023-05-05T09:55:22.505Z,49.88
2023-05-05T09:56:22.492Z,50.18
2023-05-05T09:57:22.516Z,48.97
2023-05-05T09:58:22.536Z,48.57
2023-05-05T09:59:22.457Z,49.98
2023-05-05T10:00:22.484Z,49.95
2023-05-05T10:01:22.487Z,49.95
2023-05-05T10:02:22.431Z,50.05
2023-05-05T10:03:22.442Z,49.85
2023-05-05T10:04:22.502Z,49.35
2023-05-05T10:05:22.464Z,49.15
2023-05-05T10:06:22.392Z,49.65
2023-05-05T10:07:22.376Z,48.85
2023-05-05T10:08:22.387Z,48.44
2023-05-05T10:09:22.377Z,49.25
2023-05-05T10:10:22.365Z,49.35
2023-05-05T10:11:22.321Z,49.25
2023-05-05T10:12:22.325Z,50.46
2023-05-05T10:13:22.308Z,50.56
2023-05-05T10:14:22.324Z,51.26
2023-05-05T10:15:22.293Z,51.06
2023-05-05T10:16:22.348Z,50.15
2023-05-05T10:17:22.261Z,50.26
2023-05-05T10:18:22.424Z,50.03
2023-05-05T10:19:22.724Z,49.73
2023-05-05T10:20:22.272Z,50.53
2023-05-05T10:21:22.247Z,50.73
2023-05-05T10:22:22.228Z,49.80
2023-05-05T10:23:22.225Z,50.41
2023-05-05T10:24:22.215Z,50.21
2023-05-05T10:25:22.217Z,50.81
2023-05-05T10:26:22.187Z,49.91
2023-05-05T10:27:22.190Z,50.38
2023-05-05T10:28:22.209Z,49.58
2023-05-05T10:29:22.151Z,49.48
2023-05-05T10:30:22.143Z,50.09
2023-05-05T10:31:26.335Z,49.28
2023-05-05T10:34:22.160Z,50.29
2023-05-05T10:35:22.080Z,50.38
2023-05-05T10:36:22.089Z,50.79
2023-05-05T10:37:22.094Z,51.56
2023-05-05T10:38:22.722Z,51.06
2023-05-05T10:39:22.043Z,50.46
2023-05-05T10:40:22.041Z,50.36
2023-05-05T10:41:22.029Z,49.86
2023-05-05T10:42:22.029Z,49.86
2023-05-05T10:43:22.060Z,50.54
2023-05-05T10:44:22.008Z,49.74
2023-05-05T10:45:22.042Z,49.74
2023-05-05T10:46:22.044Z,50.13
2023-05-05T10:47:22.052Z,50.94
2023-05-05T10:48:21.980Z,51.44
2023-05-05T10:49:21.984Z,50.74
2023-05-05T10:50:21.958Z,50.94
2023-05-05T10:51:35.377Z,50.94
2023-05-05T10:52:21.955Z,51.44
2023-05-05T10:53:21.918Z,51.51
2023-05-05T10:54:21.936Z,50.51
2023-05-05T10:55:21.944Z,50.62
2023-05-05T10:56:21.907Z,51.21
2023-05-05T10:57:21.873Z,51.42
2023-05-05T10:58:21.873Z,50.62
2023-05-05T10:59:21.854Z,51.01
2023-05-05T11:00:21.854Z,50.62
2023-05-05T11:01:21.884Z,50.01
2023-05-05T11:02:21.808Z,50.19
2023-05-05T11:03:21.910Z,50.19
2023-05-05T11:04:21.835Z,49.58
2023-05-05T11:05:21.800Z,50.29
2023-05-05T11:06:21.785Z,50.29
2023-05-05T11:07:21.845Z,50.69
2023-05-05T11:08:21.762Z,50.59
2023-05-05T11:09:21.740Z,50.59
2023-05-05T11:10:21.734Z,49.99
2023-05-05T11:11:21.720Z,51.29
2023-05-05T11:12:21.723Z,50.49
2023-05-05T11:13:21.788Z,50.39
2023-05-05T11:14:21.699Z,50.19
2023-05-05T11:15:21.689Z,50.69
2023-05-05T11:16:21.717Z,50.89
2023-05-05T11:17:21.703Z,49.58
2023-05-05T11:18:21.808Z,50.29
2023-05-05T11:19:21.683Z,49.76
2023-05-05T11:20:21.655Z,49.87
2023-05-05T11:21:21.639Z,50.46
2023-05-05T11:22:21.621Z,50.26
2023-05-05T11:23:21.596Z,49.87
2023-05-05T11:24:21.600Z,49.54
2023-05-05T11:25:21.815Z,50.44
2023-05-05T11:26:21.569Z,50.24
2023-05-05T11:27:21.555Z,50.54
2023-05-05T11:28:21.574Z,50.54
2023-05-05T11:29:21.532Z,50.44
2023-05-05T11:30:21.540Z,50.84
2023-05-05T11:31:21.600Z,50.24
2023-05-05T11:32:21.553Z,50.44
2023-05-05T11:33:21.509Z,49.62
2023-05-05T11:34:21.514Z,49.32
2023-05-05T11:35:21.483Z,48.92
2023-05-05T11:36:21.484Z,48.72
2023-05-05T11:37:21.467Z,49.24
2023-05-05T11:38:21.470Z,49.44
2023-05-05T11:39:21.453Z,49.74
2023-05-05T11:40:21.443Z,49.82
2023-05-05T11:41:21.441Z,50.62
2023-05-05T11:42:21.416Z,50.72
2023-05-05T11:43:21.455Z,50.52
2023-05-05T11:44:21.410Z,49.59
2023-05-05T11:45:21.401Z,49.79
2023-05-05T11:46:21.502Z,49.09
2023-05-05T11:47:21.373Z,48.19
2023-05-05T11:48:21.368Z,48.90
2023-05-05T11:49:21.375Z,48.69
2023-05-05T11:50:21.342Z,49.09
2023-05-05T11:51:21.328Z,49.29
2023-05-05T11:52:21.304Z,49.37
2023-05-05T11:53:21.293Z,48.87
2023-05-05T11:54:21.297Z,49.07
2023-05-05T11:55:21.306Z,47.97
2023-05-05T11:56:21.281Z,48.77
2023-05-05T11:57:21.383Z,49.17
2023-05-05T11:58:21.259Z,48.97
2023-05-05T11:59:21.247Z,48.17
2023-05-05T12:00:21.277Z,48.57
2023-05-05T12:01:21.220Z,48.05
2023-05-05T12:02:21.252Z,47.95
2023-05-05T12:03:21.353Z,46.95
2023-05-05T12:04:21.212Z,47.75
2023-05-05T12:05:21.222Z,46.85
2023-05-05T12:06:21.185Z,47.05
2023-05-05T12:07:21.172Z,47.85
2023-05-05T12:08:21.165Z,47.25
2023-05-05T12:09:21.147Z,47.05
2023-05-05T12:10:21.128Z,46.75
2023-05-05T12:11:21.137Z,46.95
2023-05-05T12:12:21.104Z,47.35
2023-05-05T12:13:21.207Z,46.65
2023-05-05T12:14:21.073Z,46.15
2023-05-05T12:15:21.071Z,46.25
2023-05-05T12:16:21.145Z,46.85
2023-05-05T12:17:21.088Z,47.25
2023-05-05T12:18:21.038Z,47.15
2023-05-05T12:19:21.040Z,47.15
2023-05-05T12:20:21.032Z,46.95
2023-05-05T12:21:21.014Z,46.95
2023-05-05T12:22:21.255Z,46.65
2023-05-05T12:23:21.003Z,46.55
2023-05-05T12:24:20.998Z,47.05
2023-05-05T12:25:20.981Z,46.27
2023-05-05T12:26:20.971Z,46.87
2023-05-05T12:27:20.950Z,45.97
2023-05-05T12:28:21.010Z,45.87
2023-05-05T12:29:20.933Z,46.17
2023-05-05T12:30:20.964Z,46.27
2023-05-05T12:31:20.994Z,46.57
2023-05-05T12:32:21.077Z,46.67
2023-05-05T12:33:20.882Z,47.17
2023-05-05T12:34:20.909Z,47.25
2023-05-05T12:35:20.875Z,46.65
2023-05-05T12:36:20.879Z,46.85
2023-05-05T12:37:20.857Z,46.05
2023-05-05T12:38:20.855Z,45.95
2023-05-05T12:39:20.837Z,46.75
2023-05-05T12:40:21.222Z,47.15
2023-05-05T12:41:20.806Z,47.05
2023-05-05T12:42:20.803Z,46.95
2023-05-05T12:43:20.815Z,47.35
2023-05-05T12:44:20.793Z,47.25
2023-05-05T12:45:20.786Z,46.95
2023-05-05T12:46:20.825Z,46.55
2023-05-05T12:47:20.771Z,46.62
2023-05-05T12:48:20.768Z,46.92
2023-05-05T12:49:20.751Z,47.13
2023-05-05T12:50:20.733Z,47.33
2023-05-05T12:51:20.808Z,46.92
2023-05-05T12:52:20.725Z,46.23
2023-05-05T12:53:20.696Z,45.83
2023-05-05T12:54:20.679Z,46.43